Terminal Aerodrome Forecast
Issued by NWS

Home | Current Version | Previous Version | Graphics & Text | Print | Product List | Glossary On
Versions: 1 2 3 4 5 6 7 8 9 10 11 12 13 14 15 16 17 18 19 20 21 22 23 24 25 26 27 28 29 30 31 32 33 34 35 36
000
FTUS43 KLOT 220112 AAA
TAFORD
TAF AMD
KORD 220112Z 2201/2306 23005KT P6SM FEW250
     FM220800 00000KT 4SM BR BCFG OVC006
     FM221100 03003KT 1SM BR OVC004
     FM221700 03007KT 3SM BR OVC006
     FM221900 01010KT P6SM OVC015=

USA.gov is the U.S. government's official web portal to all federal, state and local government web resources and services.